createdAt,value
2019-03-29T00:01:57.782Z,62.87
2019-03-29T00:04:36.807Z,63.20
2019-03-29T00:07:10.425Z,52.05
2019-03-29T00:09:44.064Z,51.72
2019-03-29T00:12:17.748Z,54.45
2019-03-29T00:14:51.344Z,56.72
2019-03-29T00:17:25.258Z,58.54
2019-03-29T00:19:58.889Z,59.94
2019-03-29T00:22:32.585Z,60.92
2019-03-29T00:25:07.087Z,61.90
2019-03-29T00:27:41.079Z,62.54
2019-03-29T00:30:15.551Z,64.13
2019-03-29T00:32:49.339Z,52.96
2019-03-29T00:35:23.088Z,49.86
2019-03-29T00:38:02.196Z,52.68
2019-03-29T00:40:35.831Z,55.09
2019-03-29T00:43:09.449Z,56.60
2019-03-29T00:45:43.202Z,58.18
2019-03-29T00:48:18.258Z,59.11
2019-03-29T00:50:51.880Z,60.32
2019-03-29T00:53:25.612Z,61.29
2019-03-29T00:56:00.766Z,63.83
2019-03-29T00:58:35.883Z,55.48
2019-03-29T01:01:11.029Z,50.43
2019-03-29T01:03:46.090Z,52.94
2019-03-29T01:06:21.272Z,55.91
2019-03-29T01:09:01.003Z,57.44
2019-03-29T01:11:42.263Z,59.56
2019-03-29T01:14:21.020Z,60.78
2019-03-29T01:17:00.427Z,62.48
2019-03-29T01:19:39.922Z,62.06
2019-03-29T01:22:18.889Z,51.08
2019-03-29T01:24:58.047Z,51.26
2019-03-29T01:27:37.934Z,54.07
2019-03-29T01:30:16.788Z,56.24
2019-03-29T01:32:56.283Z,58.30
2019-03-29T01:35:35.977Z,59.46
2019-03-29T01:38:21.791Z,60.20
2019-03-29T01:40:56.649Z,61.37
2019-03-29T01:43:35.290Z,62.24
2019-03-29T01:46:15.594Z,65.42
2019-03-29T01:48:55.336Z,53.99
2019-03-29T01:51:35.189Z,49.86
2019-03-29T01:54:14.887Z,52.36
2019-03-29T01:56:53.904Z,54.87
2019-03-29T01:59:33.316Z,56.51
2019-03-29T02:02:11.973Z,58.11
2019-03-29T02:04:50.959Z,59.19
2019-03-29T02:07:30.300Z,60.39
2019-03-29T02:10:11.708Z,61.33
2019-03-29T02:12:50.271Z,61.92
2019-03-29T02:15:29.658Z,63.27
2019-03-29T02:18:08.374Z,52.06
2019-03-29T02:20:47.439Z,49.12
2019-03-29T02:23:27.129Z,51.00
2019-03-29T02:26:06.550Z,53.10
2019-03-29T02:28:46.375Z,54.51
2019-03-29T02:31:28.600Z,56.06
2019-03-29T02:34:06.630Z,56.67
2019-03-29T02:36:46.285Z,56.99
2019-03-29T02:39:27.030Z,58.08
2019-03-29T02:42:01.008Z,58.76
2019-03-29T02:44:35.003Z,59.26
2019-03-29T02:47:08.998Z,59.78
2019-03-29T02:49:42.693Z,60.09
2019-03-29T02:52:16.299Z,60.71
2019-03-29T02:54:49.972Z,60.79
2019-03-29T02:57:23.588Z,61.45
2019-03-29T02:59:57.160Z,62.08
2019-03-29T03:02:30.783Z,62.40
2019-03-29T03:05:04.393Z,64.96
2019-03-29T03:07:38.089Z,54.58
2019-03-29T03:10:17.482Z,48.41
2019-03-29T03:12:51.170Z,50.16
2019-03-29T03:15:24.889Z,51.66
2019-03-29T03:17:58.509Z,53.30
2019-03-29T03:20:32.205Z,54.70
2019-03-29T03:23:05.848Z,56.33
2019-03-29T03:25:40.550Z,57.72
2019-03-29T03:28:14.202Z,59.90
2019-03-29T03:30:47.924Z,60.63
2019-03-29T03:33:21.638Z,61.37
2019-03-29T03:35:55.367Z,62.91
2019-03-29T03:38:29.183Z,64.60
2019-03-29T03:41:04.012Z,53.98
2019-03-29T03:43:43.088Z,48.89
2019-03-29T03:46:22.881Z,51.06
2019-03-29T03:48:56.577Z,53.08
2019-03-29T03:51:30.281Z,54.85
2019-03-29T03:54:04.233Z,56.26
2019-03-29T03:56:38.728Z,57.41
2019-03-29T03:59:12.663Z,58.63
2019-03-29T04:01:46.361Z,59.88
2019-03-29T04:04:20.083Z,61.21
2019-03-29T04:06:53.795Z,61.93
2019-03-29T04:09:27.522Z,62.83
2019-03-29T04:12:01.181Z,64.60
2019-03-29T04:14:34.890Z,53.61
2019-03-29T04:17:08.680Z,49.32
2019-03-29T04:19:42.326Z,52.16
2019-03-29T04:22:15.985Z,54.92
2019-03-29T04:24:49.691Z,56.95
2019-03-29T04:27:23.283Z,58.81
2019-03-29T04:29:56.957Z,60.23
2019-03-29T04:32:30.575Z,61.73
2019-03-29T04:35:04.314Z,62.97
2019-03-29T04:37:37.952Z,63.92
2019-03-29T04:40:11.685Z,52.73
2019-03-29T04:42:45.290Z,50.02
2019-03-29T04:45:18.998Z,52.56
2019-03-29T04:47:52.616Z,55.12
2019-03-29T04:50:32.706Z,57.14
2019-03-29T04:53:11.353Z,59.15
2019-03-29T04:55:50.896Z,60.86
2019-03-29T04:58:36.007Z,62.18
2019-03-29T05:01:17.355Z,64.93
2019-03-29T05:03:49.328Z,60.11
2019-03-29T05:06:28.434Z,52.04
2019-03-29T05:09:09.825Z,54.00
2019-03-29T05:11:49.014Z,56.34
2019-03-29T05:14:28.185Z,58.68
2019-03-29T05:17:07.346Z,60.23
2019-03-29T05:19:46.546Z,62.06
2019-03-29T05:22:25.695Z,65.30
2019-03-29T05:25:04.784Z,58.56
2019-03-29T05:27:38.408Z,51.38
2019-03-29T05:30:21.560Z,53.58
2019-03-29T05:32:56.283Z,56.47
2019-03-29T05:35:30.155Z,58.30
2019-03-29T05:38:32.319Z,60.14
2019-03-29T05:41:22.414Z,62.24
2019-03-29T05:44:01.476Z,64.86
2019-03-29T05:47:01.133Z,54.25
2019-03-29T05:49:47.581Z,50.67
2019-03-29T05:52:21.255Z,53.69
2019-03-29T05:54:54.955Z,56.17
2019-03-29T05:57:28.743Z,58.05
2019-03-29T06:00:02.695Z,59.62
2019-03-29T06:02:36.367Z,61.40
2019-03-29T06:05:10.265Z,62.38
2019-03-29T06:07:43.965Z,63.02
2019-03-29T06:10:17.573Z,50.39
2019-03-29T06:12:51.261Z,49.98
2019-03-29T06:15:24.973Z,52.76
2019-03-29T06:17:58.650Z,55.09
2019-03-29T06:20:32.246Z,57.08
2019-03-29T06:23:05.847Z,58.47
2019-03-29T06:25:39.458Z,60.01
2019-03-29T06:28:14.125Z,61.05
2019-03-29T06:30:50.024Z,62.44
2019-03-29T06:33:23.732Z,63.39
2019-03-29T06:35:59.691Z,52.40
2019-03-29T06:38:35.624Z,49.52
2019-03-29T06:41:09.234Z,52.18
2019-03-29T06:43:42.901Z,54.53
2019-03-29T06:46:16.533Z,56.45
2019-03-29T06:48:50.191Z,57.71
2019-03-29T06:51:23.931Z,58.73
2019-03-29T06:53:57.641Z,60.11
2019-03-29T06:56:31.292Z,60.75
2019-03-29T06:59:05.020Z,61.35
2019-03-29T07:01:38.640Z,61.28
2019-03-29T07:04:12.335Z,61.89
2019-03-29T07:06:45.973Z,62.81
2019-03-29T07:09:19.974Z,61.47
2019-03-29T07:11:53.671Z,49.85
2019-03-29T07:14:27.318Z,49.41
2019-03-29T07:17:00.941Z,51.47
2019-03-29T07:19:34.588Z,53.26
2019-03-29T07:22:08.217Z,55.42
2019-03-29T07:24:41.907Z,53.84
2019-03-29T07:27:15.621Z,54.43
2019-03-29T07:29:49.252Z,54.60
2019-03-29T07:32:23.050Z,55.89
2019-03-29T07:34:56.707Z,56.99
2019-03-29T07:37:30.336Z,57.24
2019-03-29T07:40:04.016Z,57.76
2019-03-29T07:42:37.690Z,57.81
2019-03-29T07:45:11.583Z,59.04
2019-03-29T07:47:45.152Z,59.45
2019-03-29T07:50:19.207Z,58.35
2019-03-29T07:52:53.014Z,58.95
2019-03-29T07:55:26.665Z,58.61
2019-03-29T07:58:00.340Z,59.23
2019-03-29T08:00:33.966Z,58.41
2019-03-29T08:03:07.571Z,59.03
2019-03-29T08:05:41.197Z,58.75
2019-03-29T08:08:23.923Z,59.36
2019-03-29T08:10:53.447Z,59.04
2019-03-29T08:13:25.576Z,58.95
2019-03-29T08:15:59.610Z,58.55
2019-03-29T08:18:33.232Z,59.89
2019-03-29T08:21:06.902Z,59.72
2019-03-29T08:23:40.960Z,59.48
2019-03-29T08:26:14.652Z,59.25
2019-03-29T08:28:49.900Z,59.65
2019-03-29T08:31:23.579Z,59.83
2019-03-29T08:33:57.206Z,59.87
2019-03-29T08:36:30.876Z,60.15
2019-03-29T08:39:06.136Z,60.48
2019-03-29T08:41:39.809Z,60.52
2019-03-29T08:44:13.462Z,60.19
2019-03-29T08:46:47.182Z,60.58
2019-03-29T08:49:20.840Z,60.68
2019-03-29T08:51:54.424Z,60.95
2019-03-29T08:54:28.035Z,61.47
2019-03-29T08:57:01.645Z,61.31
2019-03-29T08:59:35.323Z,61.84
2019-03-29T09:02:09.310Z,61.79
2019-03-29T09:04:44.440Z,61.89
2019-03-29T09:07:18.467Z,62.02
2019-03-29T09:09:52.191Z,62.10
2019-03-29T09:12:25.829Z,62.37
2019-03-29T09:15:03.261Z,61.70
2019-03-29T09:17:34.933Z,61.95
2019-03-29T09:20:10.839Z,61.88
2019-03-29T09:22:44.489Z,61.26
2019-03-29T09:25:20.916Z,61.09
2019-03-29T09:27:53.664Z,61.63
2019-03-29T09:30:27.324Z,61.97
2019-03-29T09:33:00.983Z,61.73
2019-03-29T09:35:34.659Z,62.20
2019-03-29T09:38:08.293Z,61.76
2019-03-29T09:40:41.876Z,61.47
2019-03-29T09:43:15.559Z,61.40
2019-03-29T09:45:49.157Z,61.91
2019-03-29T09:48:22.714Z,61.61
2019-03-29T09:50:56.345Z,61.63
2019-03-29T09:53:31.741Z,61.76
2019-03-29T09:56:05.536Z,61.82
2019-03-29T09:58:39.155Z,61.69
2019-03-29T10:01:12.827Z,61.81
2019-03-29T10:03:46.549Z,61.71
2019-03-29T10:06:20.348Z,61.92
2019-03-29T10:08:55.558Z,62.24
2019-03-29T10:11:29.783Z,63.87
2019-03-29T10:14:03.447Z,53.43
2019-03-29T10:16:37.085Z,46.43
2019-03-29T10:19:10.695Z,49.39
2019-03-29T10:21:44.346Z,51.14
2019-03-29T10:24:17.955Z,52.58
2019-03-29T10:26:51.559Z,53.08
2019-03-29T10:29:25.231Z,53.94
2019-03-29T10:31:58.879Z,55.01
2019-03-29T10:34:37.390Z,55.10
2019-03-29T10:37:10.082Z,55.47
2019-03-29T10:39:45.094Z,56.10
2019-03-29T10:42:18.693Z,57.04
2019-03-29T10:44:52.305Z,57.52
2019-03-29T10:47:42.542Z,58.23
2019-03-29T10:50:01.395Z,58.10
2019-03-29T10:52:35.055Z,58.05
2019-03-29T10:55:08.979Z,59.03
2019-03-29T10:57:42.573Z,59.11
2019-03-29T11:00:24.106Z,59.12
2019-03-29T11:02:57.788Z,59.37
2019-03-29T11:05:31.468Z,59.31
2019-03-29T11:08:05.225Z,58.92
2019-03-29T11:10:39.909Z,58.51
2019-03-29T11:13:14.447Z,58.36
2019-03-29T11:15:48.356Z,58.52
2019-03-29T11:18:22.033Z,57.93
2019-03-29T11:20:55.672Z,57.80
2019-03-29T11:23:29.264Z,57.51
2019-03-29T11:26:03.018Z,57.64
2019-03-29T11:28:36.615Z,57.76
2019-03-29T11:31:10.204Z,57.47
2019-03-29T11:33:45.587Z,57.01
2019-03-29T11:36:19.592Z,57.15
2019-03-29T11:38:54.421Z,57.72
2019-03-29T11:41:30.007Z,57.16
2019-03-29T11:44:03.625Z,56.59
2019-03-29T11:46:38.268Z,56.69
2019-03-29T11:49:12.209Z,56.94
2019-03-29T11:51:49.135Z,57.25
2019-03-29T11:54:22.784Z,57.50
2019-03-29T11:56:56.464Z,57.01
2019-03-29T11:59:31.233Z,57.38
2019-03-29T12:02:04.934Z,57.37
2019-03-29T12:04:38.646Z,57.47
2019-03-29T12:07:14.101Z,57.15
2019-03-29T12:09:49.131Z,56.96
2019-03-29T12:12:22.808Z,57.45
2019-03-29T12:14:56.410Z,57.46
2019-03-29T12:17:30.035Z,57.25
2019-03-29T12:20:05.000Z,57.04
2019-03-29T12:22:38.672Z,56.62
2019-03-29T12:25:12.353Z,56.10
2019-03-29T12:27:46.020Z,56.21
2019-03-29T12:30:31.429Z,57.47
2019-03-29T12:32:55.322Z,55.36
2019-03-29T12:35:29.002Z,55.69
2019-03-29T12:38:04.317Z,55.55
2019-03-29T12:40:38.121Z,55.27
2019-03-29T12:43:12.778Z,55.46
2019-03-29T12:45:46.533Z,55.32
2019-03-29T12:48:20.106Z,54.51
2019-03-29T12:50:53.729Z,54.14
2019-03-29T12:53:27.354Z,54.34
2019-03-29T12:56:00.972Z,54.23
2019-03-29T12:58:35.827Z,54.18
2019-03-29T13:01:09.671Z,54.19
2019-03-29T13:03:43.457Z,53.95
2019-03-29T13:06:17.098Z,53.68
2019-03-29T13:08:50.774Z,54.22
2019-03-29T13:11:24.500Z,53.60
2019-03-29T13:14:09.636Z,53.77
2019-03-29T13:16:33.547Z,53.81
2019-03-29T13:19:07.152Z,53.81
2019-03-29T13:21:41.799Z,53.78
2019-03-29T13:24:16.094Z,53.99
2019-03-29T13:26:50.089Z,53.86
2019-03-29T13:29:23.716Z,53.99
2019-03-29T13:31:57.392Z,54.07
2019-03-29T13:34:31.030Z,54.09
2019-03-29T13:37:04.621Z,54.18
2019-03-29T13:39:38.304Z,54.42
2019-03-29T13:42:11.955Z,54.91
2019-03-29T13:44:45.960Z,55.07
2019-03-29T13:47:20.780Z,55.50
2019-03-29T13:49:54.453Z,56.39
2019-03-29T13:52:31.111Z,56.40
2019-03-29T13:55:04.375Z,57.27
2019-03-29T13:57:37.952Z,56.75
2019-03-29T14:00:13.728Z,56.95
2019-03-29T14:02:47.329Z,57.73
2019-03-29T14:05:20.968Z,57.58
2019-03-29T14:07:54.633Z,58.29
2019-03-29T14:10:28.223Z,58.23
2019-03-29T14:13:03.097Z,58.55
2019-03-29T14:15:36.825Z,58.57
2019-03-29T14:18:10.597Z,59.23
2019-03-29T14:20:44.383Z,59.29
2019-03-29T14:23:18.116Z,59.16
2019-03-29T14:25:51.734Z,59.29
2019-03-29T14:28:25.491Z,59.45
2019-03-29T14:30:59.212Z,60.11
2019-03-29T14:33:32.907Z,60.19
2019-03-29T14:36:06.627Z,60.37
2019-03-29T14:38:40.269Z,60.52
2019-03-29T14:41:13.891Z,60.66
2019-03-29T14:43:47.509Z,60.71
2019-03-29T14:46:21.237Z,59.51
2019-03-29T14:48:54.960Z,59.13
2019-03-29T14:51:28.665Z,59.10
2019-03-29T14:54:02.682Z,58.91
2019-03-29T14:56:36.279Z,59.09
2019-03-29T14:59:10.035Z,58.74
2019-03-29T15:01:43.706Z,59.49
2019-03-29T15:04:17.880Z,59.47
2019-03-29T15:06:51.597Z,59.05
2019-03-29T15:09:25.789Z,59.15
2019-03-29T15:11:59.615Z,59.34
2019-03-29T15:14:35.466Z,59.07
2019-03-29T15:17:09.241Z,59.30
2019-03-29T15:19:42.890Z,59.32
2019-03-29T15:22:16.641Z,59.11
2019-03-29T15:24:50.356Z,59.45
2019-03-29T15:27:24.056Z,59.63
2019-03-29T15:29:57.819Z,60.47
2019-03-29T15:32:31.545Z,61.03
2019-03-29T15:35:05.197Z,61.36
2019-03-29T15:37:38.856Z,61.89
2019-03-29T15:40:12.909Z,61.90
2019-03-29T15:42:46.665Z,61.76
2019-03-29T15:45:21.937Z,62.01
2019-03-29T15:47:55.583Z,62.48
2019-03-29T15:50:29.248Z,62.54
2019-03-29T15:53:03.039Z,52.38
2019-03-29T15:55:36.789Z,45.60
2019-03-29T15:58:10.660Z,48.01
2019-03-29T16:00:44.749Z,50.05
2019-03-29T16:03:18.739Z,50.91
2019-03-29T16:05:52.736Z,51.89
2019-03-29T16:08:26.614Z,52.98
2019-03-29T16:11:00.466Z,53.25
2019-03-29T16:13:36.446Z,54.18
2019-03-29T16:16:10.286Z,55.15
2019-03-29T16:18:46.803Z,55.44
2019-03-29T16:21:20.663Z,56.26
2019-03-29T16:23:54.640Z,56.44
2019-03-29T16:26:28.508Z,56.82
2019-03-29T16:29:02.344Z,57.49
2019-03-29T16:31:37.583Z,58.07
2019-03-29T16:34:11.236Z,58.23
2019-03-29T16:36:47.915Z,58.74
2019-03-29T16:39:21.602Z,59.05
2019-03-29T16:41:55.282Z,59.73
2019-03-29T16:44:29.192Z,60.66
2019-03-29T16:47:03.124Z,60.62
2019-03-29T16:49:37.136Z,61.23
2019-03-29T16:52:12.239Z,61.43
2019-03-29T16:54:46.307Z,61.75
2019-03-29T16:57:21.021Z,61.88
2019-03-29T16:59:54.788Z,62.25
2019-03-29T17:02:29.295Z,62.59
2019-03-29T17:05:03.188Z,61.54
2019-03-29T17:07:37.208Z,50.51
2019-03-29T17:10:11.652Z,47.66
2019-03-29T17:12:45.576Z,49.95
2019-03-29T17:15:19.371Z,51.43
2019-03-29T17:17:53.151Z,53.18
2019-03-29T17:20:26.854Z,54.43
2019-03-29T17:23:00.723Z,55.18
2019-03-29T17:25:35.187Z,55.80
2019-03-29T17:28:08.981Z,56.68
2019-03-29T17:30:47.328Z,57.49
2019-03-29T17:33:22.481Z,58.29
2019-03-29T17:35:57.375Z,58.85
2019-03-29T17:38:31.345Z,59.51
2019-03-29T17:41:05.193Z,59.63
2019-03-29T17:43:39.060Z,60.36
2019-03-29T17:46:16.437Z,60.88
2019-03-29T17:48:48.365Z,61.21
2019-03-29T17:51:23.433Z,61.52
2019-03-29T17:54:00.297Z,62.33
2019-03-29T17:56:34.321Z,62.53
2019-03-29T17:59:08.328Z,61.72
2019-03-29T18:01:42.019Z,50.31
2019-03-29T18:04:15.902Z,48.37
2019-03-29T18:06:49.692Z,50.34
2019-03-29T18:09:23.462Z,52.26
2019-03-29T18:11:57.253Z,53.98
2019-03-29T18:14:31.516Z,54.90
2019-03-29T18:17:05.435Z,55.74
2019-03-29T18:19:39.285Z,56.82
2019-03-29T18:22:12.967Z,57.69
2019-03-29T18:24:47.335Z,58.42
2019-03-29T18:27:22.113Z,59.22
2019-03-29T18:29:55.923Z,59.55
2019-03-29T18:32:29.991Z,60.51
2019-03-29T18:35:03.762Z,61.12
2019-03-29T18:37:37.639Z,61.50
2019-03-29T18:40:27.032Z,61.76
2019-03-29T18:43:00.981Z,62.62
2019-03-29T18:45:34.823Z,61.74
2019-03-29T18:48:08.767Z,50.71
2019-03-29T18:50:42.594Z,49.28
2019-03-29T18:53:16.833Z,51.42
2019-03-29T18:55:50.529Z,53.10
2019-03-29T18:58:24.276Z,54.44
2019-03-29T19:00:58.032Z,55.46
2019-03-29T19:03:31.869Z,55.68
2019-03-29T19:06:05.976Z,56.35
2019-03-29T19:08:40.087Z,57.25
2019-03-29T19:11:14.048Z,57.87
2019-03-29T19:13:48.119Z,58.44
2019-03-29T19:16:21.923Z,59.17
2019-03-29T19:19:09.173Z,59.58
2019-03-29T19:21:31.621Z,60.10
2019-03-29T19:24:05.304Z,60.91
2019-03-29T19:26:39.291Z,61.13
2019-03-29T19:29:13.220Z,61.48
2019-03-29T19:31:47.234Z,62.01
2019-03-29T19:34:21.191Z,63.07
2019-03-29T19:36:55.229Z,62.40
2019-03-29T19:39:29.099Z,50.20
2019-03-29T19:42:03.025Z,49.34
2019-03-29T19:44:36.805Z,51.44
2019-03-29T19:47:13.844Z,53.15
2019-03-29T19:49:46.333Z,54.38
2019-03-29T19:52:20.227Z,55.62
2019-03-29T19:54:53.931Z,56.57
2019-03-29T19:57:27.746Z,57.55
2019-03-29T20:00:01.651Z,58.50
2019-03-29T20:02:35.467Z,59.05
2019-03-29T20:05:27.724Z,60.25
2019-03-29T20:08:01.775Z,60.73
2019-03-29T20:10:37.701Z,61.48
2019-03-29T20:13:11.378Z,61.93
2019-03-29T20:15:45.203Z,62.24
2019-03-29T20:18:20.064Z,62.58
2019-03-29T20:20:54.118Z,62.95
2019-03-29T20:23:27.813Z,53.24
2019-03-29T20:26:01.837Z,48.21
2019-03-29T20:28:38.393Z,49.88
2019-03-29T20:31:12.499Z,51.97
2019-03-29T20:33:46.676Z,53.80
2019-03-29T20:36:23.383Z,55.18
2019-03-29T20:38:57.176Z,55.97
2019-03-29T20:41:31.005Z,56.89
2019-03-29T20:44:04.868Z,57.60
2019-03-29T20:46:38.869Z,58.56
2019-03-29T20:49:12.740Z,59.16
2019-03-29T20:51:47.373Z,59.85
2019-03-29T20:54:21.303Z,60.51
2019-03-29T20:56:55.161Z,60.89
2019-03-29T20:59:29.298Z,61.42
2019-03-29T21:02:03.266Z,62.38
2019-03-29T21:04:37.343Z,63.90
2019-03-29T21:07:12.950Z,53.76
2019-03-29T21:09:55.585Z,47.84
2019-03-29T21:12:29.407Z,49.94
2019-03-29T21:15:04.272Z,52.16
2019-03-29T21:17:39.527Z,53.83
2019-03-29T21:20:14.285Z,55.01
2019-03-29T21:22:48.578Z,56.38
2019-03-29T21:25:22.268Z,57.21
2019-03-29T21:27:55.956Z,58.17
2019-03-29T21:30:30.104Z,58.93
2019-03-29T21:33:06.803Z,59.77
2019-03-29T21:35:40.706Z,60.49
2019-03-29T21:38:14.470Z,61.08
2019-03-29T21:40:48.157Z,61.96
2019-03-29T21:43:22.321Z,62.60
2019-03-29T21:45:56.228Z,64.21
2019-03-29T21:48:30.034Z,52.98
2019-03-29T21:51:04.523Z,48.46
2019-03-29T21:53:38.448Z,50.69
2019-03-29T21:56:12.239Z,52.81
2019-03-29T21:58:46.240Z,54.44
2019-03-29T22:01:20.216Z,55.59
2019-03-29T22:03:55.652Z,57.08
2019-03-29T22:06:29.441Z,57.94
2019-03-29T22:09:06.597Z,58.85
2019-03-29T22:11:41.935Z,59.54
2019-03-29T22:14:15.828Z,60.42
2019-03-29T22:16:49.715Z,61.21
2019-03-29T22:19:23.476Z,61.74
2019-03-29T22:21:57.126Z,62.76
2019-03-29T22:24:30.746Z,64.42
2019-03-29T22:27:04.476Z,53.76
2019-03-29T22:29:38.174Z,48.45
2019-03-29T22:32:12.023Z,50.37
2019-03-29T22:34:45.886Z,52.57
2019-03-29T22:37:19.767Z,54.31
2019-03-29T22:39:53.564Z,55.45
2019-03-29T22:42:28.424Z,56.72
2019-03-29T22:45:02.293Z,57.71
2019-03-29T22:47:36.154Z,58.73
2019-03-29T22:50:10.578Z,59.89
2019-03-29T22:52:44.657Z,60.47
2019-03-29T22:55:18.445Z,61.02
2019-03-29T22:57:52.554Z,62.12
2019-03-29T23:00:36.648Z,63.00
2019-03-29T23:03:12.094Z,63.83
2019-03-29T23:05:45.792Z,52.84
2019-03-29T23:08:19.503Z,48.48
2019-03-29T23:10:53.232Z,50.87
2019-03-29T23:13:27.058Z,52.74
2019-03-29T23:16:00.960Z,54.21
2019-03-29T23:18:34.761Z,55.77
2019-03-29T23:21:08.427Z,56.88
2019-03-29T23:23:42.040Z,58.08
2019-03-29T23:26:15.855Z,59.25
2019-03-29T23:28:51.117Z,60.47
2019-03-29T23:31:24.868Z,61.43
2019-03-29T23:33:58.705Z,61.91
2019-03-29T23:36:32.404Z,62.82
2019-03-29T23:39:07.018Z,65.25
2019-03-29T23:41:40.703Z,55.27
2019-03-29T23:44:14.483Z,49.09
2019-03-29T23:46:49.237Z,50.93
2019-03-29T23:49:22.970Z,53.43
2019-03-29T23:51:56.668Z,55.39
2019-03-29T23:54:30.398Z,57.18
2019-03-29T23:57:04.020Z,58.21
2019-03-29T23:59:37.705Z,59.58
